createdAt,value
2018-03-15T00:02:00.643Z,95.80
2018-03-15T00:04:33.933Z,95.80
2018-03-15T00:07:01.424Z,95.80
2018-03-15T00:09:28.956Z,95.70
2018-03-15T00:11:57.216Z,95.80
2018-03-15T00:14:24.732Z,95.80
2018-03-15T00:16:52.224Z,95.80
2018-03-15T00:19:19.741Z,95.80
2018-03-15T00:21:48.005Z,96.10
2018-03-15T00:24:15.535Z,96.00
2018-03-15T00:26:43.028Z,96.20
2018-03-15T00:29:10.548Z,96.30
2018-03-15T00:31:38.799Z,96.50
2018-03-15T00:34:06.340Z,96.40
2018-03-15T00:36:33.830Z,96.40
2018-03-15T00:39:01.351Z,96.50
2018-03-15T00:41:29.619Z,96.70
2018-03-15T00:43:57.147Z,96.70
2018-03-15T00:46:24.631Z,96.60
2018-03-15T00:48:52.152Z,96.50
2018-03-15T00:51:20.424Z,96.20
2018-03-15T00:53:47.943Z,96.60
2018-03-15T00:56:15.441Z,96.20
2018-03-15T00:58:42.956Z,96.00
2018-03-15T01:01:11.208Z,96.00
2018-03-15T01:03:39.206Z,96.00
2018-03-15T01:06:06.703Z,96.30
2018-03-15T01:08:34.983Z,96.00
2018-03-15T01:11:02.467Z,96.00
2018-03-15T01:13:30.017Z,95.80
2018-03-15T01:15:57.500Z,95.70
2018-03-15T01:18:25.818Z,95.80
2018-03-15T01:20:53.303Z,95.80
2018-03-15T01:23:20.783Z,95.80
2018-03-15T01:25:48.299Z,95.80
2018-03-15T01:28:15.784Z,95.80
2018-03-15T01:30:44.066Z,95.80
2018-03-15T01:33:12.311Z,95.90
2018-03-15T01:35:39.848Z,95.80
2018-03-15T01:38:07.361Z,95.90
2018-03-15T01:40:34.898Z,95.80
2018-03-15T01:43:02.384Z,95.50
2018-03-15T01:45:29.903Z,95.30
2018-03-15T01:47:57.401Z,95.10
2018-03-15T01:50:24.914Z,95.00
2018-03-15T01:52:52.406Z,94.90
2018-03-15T01:55:19.920Z,94.90
2018-03-15T01:57:47.441Z,94.50
2018-03-15T02:00:14.960Z,94.40
2018-03-15T02:02:42.440Z,94.40
2018-03-15T02:05:09.951Z,94.30
2018-03-15T02:07:37.429Z,94.20
2018-03-15T02:10:04.949Z,94.30
2018-03-15T02:12:32.440Z,94.20
2018-03-15T02:14:59.956Z,94.20
2018-03-15T02:17:27.435Z,94.40
2018-03-15T02:19:54.948Z,94.30
2018-03-15T02:22:22.435Z,94.30
2018-03-15T02:24:49.959Z,94.40
2018-03-15T02:27:18.213Z,94.30
2018-03-15T02:29:45.745Z,94.20
2018-03-15T02:35:03.904Z,94.20
2018-03-15T02:37:32.196Z,94.40
2018-03-15T02:40:00.481Z,94.50
2018-03-15T02:42:28.774Z,94.30
2018-03-15T02:44:57.033Z,94.10
2018-03-15T02:47:24.569Z,94.00
2018-03-15T02:49:52.060Z,93.90
2018-03-15T02:52:19.585Z,93.90
2018-03-15T02:54:47.086Z,93.80
2018-03-15T02:57:14.633Z,93.90
2018-03-15T02:59:42.129Z,94.00
2018-03-15T03:02:09.648Z,93.80
2018-03-15T03:04:37.141Z,93.80
2018-03-15T03:07:04.679Z,93.90
2018-03-15T03:09:32.176Z,93.60
2018-03-15T03:11:59.789Z,93.50
2018-03-15T03:14:27.282Z,93.60
2018-03-15T03:16:54.770Z,93.60
2018-03-15T03:19:22.309Z,93.40
2018-03-15T03:21:49.798Z,93.50
2018-03-15T03:24:17.324Z,93.30
2018-03-15T03:26:44.811Z,93.30
2018-03-15T03:29:12.320Z,93.30
2018-03-15T03:31:39.800Z,93.40
2018-03-15T03:34:07.322Z,93.30
2018-03-15T03:36:34.816Z,93.40
2018-03-15T03:39:02.342Z,93.40
2018-03-15T03:41:29.841Z,93.30
2018-03-15T03:43:57.408Z,93.30
2018-03-15T03:46:24.953Z,93.40
2018-03-15T03:48:52.442Z,93.50
2018-03-15T03:51:19.936Z,93.50
2018-03-15T03:53:47.465Z,93.50
2018-03-15T03:56:14.958Z,93.40
2018-03-15T03:58:42.480Z,93.40
2018-03-15T04:01:09.968Z,93.30
2018-03-15T04:03:38.249Z,93.10
2018-03-15T04:06:06.505Z,93.00
2018-03-15T04:08:34.021Z,93.00
2018-03-15T04:11:02.272Z,93.00
2018-03-15T04:13:29.793Z,92.90
2018-03-15T04:15:57.287Z,92.90
2018-03-15T04:18:24.816Z,92.90
2018-03-15T04:20:53.068Z,93.00
2018-03-15T04:23:21.245Z,92.90
2018-03-15T04:25:48.748Z,93.00
2018-03-15T04:28:16.268Z,92.80
2018-03-15T04:30:43.766Z,93.00
2018-03-15T04:33:11.280Z,92.70
2018-03-15T04:35:39.535Z,92.60
2018-03-15T04:38:07.053Z,92.60
2018-03-15T04:40:34.552Z,92.60
2018-03-15T04:43:02.071Z,92.50
2018-03-15T04:45:29.559Z,92.40
2018-03-15T04:47:57.085Z,92.40
2018-03-15T04:50:24.571Z,92.60
2018-03-15T04:52:52.115Z,92.60
2018-03-15T04:55:19.616Z,92.70
2018-03-15T04:57:47.141Z,92.30
2018-03-15T05:00:14.635Z,92.30
2018-03-15T05:02:42.158Z,92.20
2018-03-15T05:05:10.416Z,92.20
2018-03-15T05:07:37.945Z,92.20
2018-03-15T05:10:05.520Z,92.20
2018-03-15T05:12:33.056Z,92.20
2018-03-15T05:15:01.316Z,92.30
2018-03-15T05:17:28.838Z,92.30
2018-03-15T05:19:56.330Z,92.40
2018-03-15T05:22:23.863Z,92.30
2018-03-15T05:24:52.120Z,92.20
2018-03-15T05:27:19.640Z,92.20
2018-03-15T05:29:47.141Z,92.30
2018-03-15T05:32:14.673Z,92.30
2018-03-15T05:34:42.189Z,92.40
2018-03-15T05:37:09.716Z,92.30
2018-03-15T05:39:37.329Z,92.30
2018-03-15T05:42:04.845Z,92.20
2018-03-15T05:44:33.123Z,92.10
2018-03-15T05:47:00.635Z,92.10
2018-03-15T05:49:28.139Z,91.90
2018-03-15T05:51:55.633Z,92.10
2018-03-15T05:54:23.157Z,92.20
2018-03-15T05:56:50.649Z,92.30
2018-03-15T05:59:18.179Z,92.60
2018-03-15T06:01:45.691Z,92.20
2018-03-15T06:04:13.211Z,92.30
2018-03-15T06:06:40.746Z,92.10
2018-03-15T06:09:08.240Z,92.30
2018-03-15T06:11:35.731Z,92.10
2018-03-15T06:14:03.256Z,92.10
2018-03-15T06:16:30.774Z,91.90
2018-03-15T06:18:58.315Z,91.80
2018-03-15T06:21:25.806Z,91.70
2018-03-15T06:23:54.105Z,91.20
2018-03-15T06:26:21.609Z,91.20
2018-03-15T06:28:49.175Z,91.00
2018-03-15T06:31:17.463Z,91.00
2018-03-15T06:33:45.099Z,91.00
2018-03-15T06:36:13.460Z,90.90
2018-03-15T06:38:40.988Z,90.90
2018-03-15T06:41:08.508Z,91.10
2018-03-15T06:43:36.011Z,90.60
2018-03-15T06:46:04.292Z,90.40
2018-03-15T06:48:32.584Z,90.70
2018-03-15T06:51:00.335Z,90.40
2018-03-15T06:53:27.875Z,90.40
2018-03-15T06:55:55.412Z,90.50
2018-03-15T06:58:23.708Z,90.60
2018-03-15T07:00:51.225Z,90.60
2018-03-15T07:03:18.739Z,90.60
2018-03-15T07:05:47.000Z,90.50
2018-03-15T07:08:15.390Z,90.50
2018-03-15T07:10:42.877Z,90.40
2018-03-15T07:13:10.404Z,90.10
2018-03-15T07:15:37.898Z,89.30
2018-03-15T07:18:05.417Z,87.70
2018-03-15T07:20:32.905Z,83.10
2018-03-15T07:23:00.431Z,73.20
2018-03-15T07:25:27.933Z,72.10
2018-03-15T07:27:55.453Z,72.60
2018-03-15T07:30:22.987Z,73.10
2018-03-15T07:32:50.484Z,75.60
2018-03-15T07:35:18.012Z,77.80
2018-03-15T07:37:45.504Z,78.40
2018-03-15T07:40:12.996Z,75.50
2018-03-15T07:42:40.544Z,74.50
2018-03-15T07:45:08.042Z,76.20
2018-03-15T07:47:35.570Z,76.20
2018-03-15T07:50:03.065Z,76.00
2018-03-15T07:52:30.607Z,74.40
2018-03-15T07:54:58.873Z,70.50
2018-03-15T07:57:26.385Z,70.50
2018-03-15T07:59:53.927Z,67.00
2018-03-15T08:10:54.286Z,64.00
2018-03-15T08:13:21.830Z,65.90
2018-03-15T08:15:49.335Z,65.00
2018-03-15T08:18:16.875Z,65.10
2018-03-15T08:20:44.361Z,65.60
2018-03-15T08:23:11.912Z,65.10
2018-03-15T08:25:39.409Z,64.80
2018-03-15T08:28:07.737Z,62.90
2018-03-15T08:30:35.238Z,62.90
2018-03-15T08:33:02.770Z,63.40
2018-03-15T08:35:30.318Z,62.50
2018-03-15T08:37:58.609Z,62.90
2018-03-15T08:40:26.112Z,62.90
2018-03-15T08:42:53.639Z,61.60
2018-03-15T08:45:21.899Z,61.10
2018-03-15T08:47:49.431Z,60.80
2018-03-15T08:50:16.933Z,62.70
2018-03-15T08:52:44.467Z,65.10
2018-03-15T08:55:11.971Z,64.30
2018-03-15T08:57:39.530Z,64.20
2018-03-15T09:00:07.024Z,63.60
2018-03-15T09:02:34.561Z,63.70
2018-03-15T09:05:02.053Z,63.60
2018-03-15T09:07:29.608Z,63.50
2018-03-15T09:09:57.193Z,63.20
2018-03-15T09:12:24.717Z,60.60
2018-03-15T09:14:52.973Z,60.00
2018-03-15T09:17:20.500Z,60.00
2018-03-15T09:19:47.997Z,59.50
2018-03-15T09:22:15.524Z,57.90
2018-03-15T09:24:43.784Z,57.60
2018-03-15T09:27:11.313Z,57.50
2018-03-15T09:29:38.809Z,57.20
2018-03-15T09:32:06.356Z,55.50
2018-03-15T09:34:33.962Z,54.10
2018-03-15T09:37:01.440Z,54.40
2018-03-15T09:39:28.953Z,55.20
2018-03-15T09:41:56.488Z,52.50
2018-03-15T09:44:23.999Z,51.10
2018-03-15T09:46:51.539Z,50.60
2018-03-15T09:49:19.817Z,51.80
2018-03-15T09:51:47.351Z,51.70
2018-03-15T09:54:14.892Z,53.30
2018-03-15T09:56:42.413Z,54.00
2018-03-15T09:59:09.964Z,53.70
2018-03-15T10:01:47.604Z,55.50
2018-03-15T10:04:15.103Z,56.00
2018-03-15T10:06:42.812Z,55.00
2018-03-15T10:09:10.315Z,54.40
2018-03-15T10:11:37.828Z,55.10
2018-03-15T10:14:06.137Z,56.30
2018-03-15T10:16:33.677Z,56.30
2018-03-15T10:19:01.175Z,57.50
2018-03-15T10:21:28.717Z,58.00
2018-03-15T10:23:56.228Z,58.00
2018-03-15T10:26:23.758Z,58.50
2018-03-15T10:28:51.330Z,58.20
2018-03-15T10:31:19.619Z,57.30
2018-03-15T10:33:47.163Z,57.40
2018-03-15T10:36:14.688Z,56.10
2018-03-15T10:38:42.239Z,55.20
2018-03-15T10:41:09.744Z,55.20
2018-03-15T10:43:37.278Z,55.90
2018-03-15T10:46:05.564Z,54.40
2018-03-15T10:48:33.101Z,54.30
2018-03-15T10:51:00.602Z,53.00
2018-03-15T10:53:28.143Z,51.50
2018-03-15T10:55:55.709Z,52.80
2018-03-15T10:58:23.244Z,54.10
2018-03-15T11:00:57.117Z,56.00
2018-03-15T11:03:30.290Z,55.90
2018-03-15T11:06:03.544Z,56.90
2018-03-15T11:08:35.960Z,57.00
2018-03-15T11:11:04.240Z,57.00
2018-03-15T11:13:31.808Z,57.00
2018-03-15T11:15:59.277Z,57.20
2018-03-15T11:18:26.837Z,57.20
2018-03-15T11:20:54.337Z,56.10
2018-03-15T11:23:22.641Z,56.10
2018-03-15T11:25:50.921Z,56.20
2018-03-15T11:28:19.224Z,55.60
2018-03-15T11:30:46.738Z,55.60
2018-03-15T11:33:14.292Z,56.40
2018-03-15T11:35:41.792Z,56.00
2018-03-15T11:38:09.338Z,57.20
2018-03-15T11:40:36.837Z,57.60
2018-03-15T11:43:04.384Z,57.20
2018-03-15T11:45:31.892Z,58.70
2018-03-15T11:47:59.482Z,57.60
2018-03-15T11:50:27.773Z,58.50
2018-03-15T11:52:56.072Z,57.30
2018-03-15T11:55:24.336Z,58.10
2018-03-15T11:57:51.869Z,58.00
2018-03-15T12:00:19.376Z,57.70
2018-03-15T12:02:46.925Z,58.10
2018-03-15T12:05:14.430Z,58.50
2018-03-15T12:07:42.009Z,58.50
2018-03-15T12:10:09.478Z,58.40
2018-03-15T12:12:37.792Z,59.10
2018-03-15T12:15:05.305Z,59.10
2018-03-15T12:17:32.854Z,58.40
2018-03-15T12:20:00.353Z,59.10
2018-03-15T12:22:27.880Z,58.90
2018-03-15T12:24:56.164Z,58.80
2018-03-15T12:27:24.464Z,59.00
2018-03-15T12:29:52.720Z,59.00
2018-03-15T12:32:20.246Z,59.00
2018-03-15T12:34:47.744Z,59.30
2018-03-15T12:37:15.267Z,58.70
2018-03-15T12:39:42.754Z,58.80
2018-03-15T12:42:10.273Z,58.60
2018-03-15T12:44:37.757Z,58.90
2018-03-15T12:47:06.051Z,58.20
2018-03-15T12:49:34.300Z,59.10
2018-03-15T12:52:01.816Z,58.40
2018-03-15T12:54:29.312Z,58.30
2018-03-15T12:56:56.844Z,58.50
2018-03-15T12:59:24.328Z,58.90
2018-03-15T13:01:52.698Z,59.40
2018-03-15T13:04:20.197Z,59.40
2018-03-15T13:06:48.488Z,60.20
2018-03-15T13:09:16.748Z,61.10
2018-03-15T13:11:44.282Z,61.10
2018-03-15T13:14:11.805Z,60.60
2018-03-15T13:16:39.302Z,60.50
2018-03-15T13:19:06.804Z,60.70
2018-03-15T13:21:34.336Z,60.50
2018-03-15T13:24:01.840Z,60.20
2018-03-15T13:26:29.372Z,60.30
2018-03-15T13:28:56.864Z,59.80
2018-03-15T13:31:24.445Z,60.00
2018-03-15T13:33:52.695Z,61.10
2018-03-15T13:36:20.244Z,60.30
2018-03-15T13:38:47.737Z,60.10
2018-03-15T13:41:15.265Z,58.20
2018-03-15T13:43:43.534Z,58.70
2018-03-15T13:46:11.834Z,57.40
2018-03-15T13:48:39.354Z,57.50
2018-03-15T13:51:06.872Z,56.80
2018-03-15T13:53:34.385Z,56.80
2018-03-15T13:56:01.911Z,56.90
2018-03-15T13:58:29.404Z,56.70
2018-03-15T14:00:56.940Z,57.20
2018-03-15T14:03:24.668Z,57.40
2018-03-15T14:05:52.155Z,56.90
2018-03-15T14:08:19.667Z,57.00
2018-03-15T14:10:47.925Z,56.80
2018-03-15T14:13:15.480Z,56.80
2018-03-15T14:15:42.980Z,56.10
2018-03-15T14:18:10.504Z,56.20
2018-03-15T14:20:37.996Z,56.70
2018-03-15T14:23:05.547Z,56.50
2018-03-15T14:25:33.060Z,56.50
2018-03-15T14:28:00.584Z,56.50
2018-03-15T14:30:28.121Z,55.90
2018-03-15T14:32:56.420Z,57.10
2018-03-15T14:35:23.911Z,57.10
2018-03-15T14:37:52.200Z,56.90
2018-03-15T14:40:19.700Z,56.90
2018-03-15T14:42:47.220Z,57.60
2018-03-15T14:45:14.718Z,57.10
2018-03-15T14:47:42.236Z,56.80
2018-03-15T14:50:09.736Z,55.50
2018-03-15T14:52:38.021Z,55.70
2018-03-15T14:55:05.500Z,55.70
2018-03-15T14:57:33.020Z,54.80
2018-03-15T15:00:01.065Z,55.30
2018-03-15T15:02:28.591Z,55.40
2018-03-15T15:04:56.088Z,55.50
2018-03-15T15:07:24.381Z,56.90
2018-03-15T15:09:53.984Z,56.30
2018-03-15T15:12:21.504Z,56.30
2018-03-15T15:14:49.004Z,56.00
2018-03-15T15:17:16.529Z,56.40
2018-03-15T15:19:44.017Z,56.40
2018-03-15T15:22:11.538Z,56.40
2018-03-15T15:24:39.028Z,57.60
2018-03-15T15:27:06.544Z,57.20
2018-03-15T15:29:34.028Z,57.30
2018-03-15T15:32:01.570Z,56.90
2018-03-15T15:34:29.073Z,57.40
2018-03-15T15:36:56.594Z,58.00
2018-03-15T15:39:24.092Z,57.90
2018-03-15T15:41:51.614Z,58.40
2018-03-15T15:44:19.878Z,58.80
2018-03-15T15:46:47.424Z,58.70
2018-03-15T15:49:14.926Z,58.80
2018-03-15T15:51:42.455Z,58.80
2018-03-15T15:54:09.954Z,59.40
2018-03-15T15:56:37.487Z,60.40
2018-03-15T15:59:04.985Z,59.50
2018-03-15T16:01:32.504Z,59.40
2018-03-15T16:04:00.753Z,60.50
2018-03-15T16:06:28.307Z,60.40
2018-03-15T16:08:55.805Z,60.80
2018-03-15T16:11:23.320Z,60.70
2018-03-15T16:13:50.820Z,61.00
2018-03-15T16:16:18.341Z,61.40
2018-03-15T16:18:46.600Z,62.10
2018-03-15T16:21:14.111Z,61.70
2018-03-15T16:23:41.596Z,61.80
2018-03-15T16:26:09.111Z,61.90
2018-03-15T16:28:36.597Z,62.00
2018-03-15T16:31:04.114Z,62.50
2018-03-15T16:33:31.597Z,62.50
2018-03-15T16:35:59.120Z,63.40
2018-03-15T16:38:26.610Z,63.50
2018-03-15T16:40:54.940Z,64.10
2018-03-15T16:43:22.436Z,64.10
2018-03-15T16:45:49.981Z,64.70
2018-03-15T16:48:18.314Z,65.10
2018-03-15T16:50:45.861Z,65.30
2018-03-15T16:53:13.359Z,65.30
2018-03-15T16:55:40.848Z,65.90
2018-03-15T16:58:09.130Z,66.60
2018-03-15T17:00:36.628Z,66.60
2018-03-15T17:03:04.147Z,66.80
2018-03-15T17:05:31.644Z,66.90
2018-03-15T17:07:59.210Z,66.90
2018-03-15T17:10:26.680Z,67.00
2018-03-15T17:12:54.216Z,67.10
2018-03-15T17:15:21.752Z,66.90
2018-03-15T17:17:49.287Z,67.20
2018-03-15T17:20:16.817Z,67.30
2018-03-15T17:22:44.354Z,67.00
2018-03-15T17:25:12.603Z,67.30
2018-03-15T17:27:40.184Z,67.00
2018-03-15T17:30:07.669Z,67.30
2018-03-15T17:32:35.816Z,67.80
2018-03-15T17:35:04.225Z,67.70
2018-03-15T17:37:31.866Z,68.50
2018-03-15T17:39:59.517Z,69.20
2018-03-15T17:42:27.317Z,69.80
2018-03-15T17:44:54.845Z,70.90
2018-03-15T17:47:22.416Z,71.20
2018-03-15T17:49:49.924Z,72.40
2018-03-15T17:52:18.213Z,75.00
2018-03-15T17:54:45.709Z,74.90
2018-03-15T17:57:13.231Z,75.20
2018-03-15T17:59:41.507Z,77.50
2018-03-15T18:02:09.084Z,78.40
2018-03-15T18:04:36.538Z,79.20
2018-03-15T18:07:04.056Z,82.40
2018-03-15T18:09:32.310Z,84.60
2018-03-15T18:11:59.824Z,84.60
2018-03-15T18:14:28.086Z,89.40
2018-03-15T18:16:55.633Z,89.40
2018-03-15T18:19:23.189Z,90.70
2018-03-15T18:21:50.714Z,91.20
2018-03-15T18:24:19.030Z,91.60
2018-03-15T18:26:46.512Z,91.40
2018-03-15T18:29:14.024Z,92.70
2018-03-15T18:31:41.589Z,93.80
2018-03-15T18:34:09.080Z,95.10
2018-03-15T18:36:36.629Z,95.70
2018-03-15T18:39:04.102Z,95.50
2018-03-15T18:41:31.596Z,95.90
2018-03-15T18:43:59.113Z,96.20
2018-03-15T18:46:26.619Z,96.30
2018-03-15T18:48:54.762Z,96.40
2018-03-15T18:51:22.404Z,96.60
2018-03-15T18:53:49.940Z,97.20
2018-03-15T18:56:17.437Z,97.20
2018-03-15T18:58:44.964Z,97.70
2018-03-15T19:01:12.614Z,98.40
2018-03-15T19:03:40.004Z,99.10
2018-03-15T19:06:07.501Z,99.60
2018-03-15T19:08:35.040Z,99.90
2018-03-15T19:11:02.527Z,99.90
2018-03-15T19:13:30.042Z,99.90
2018-03-15T19:15:57.650Z,99.90
2018-03-15T19:18:25.247Z,99.90
2018-03-15T19:20:52.944Z,99.90
2018-03-15T19:23:20.469Z,99.90
2018-03-15T19:25:47.995Z,99.90
2018-03-15T19:28:15.525Z,99.90
2018-03-15T19:30:43.040Z,99.90
2018-03-15T19:33:10.584Z,99.90
2018-03-15T19:35:38.070Z,99.90
2018-03-15T19:38:05.584Z,99.90
2018-03-15T19:40:33.836Z,99.90
2018-03-15T19:43:01.432Z,99.90
2018-03-15T19:45:28.992Z,99.90
2018-03-15T19:47:56.527Z,99.90
2018-03-15T19:50:24.081Z,99.90
2018-03-15T19:52:52.351Z,99.90
2018-03-15T19:55:20.613Z,99.90
2018-03-15T19:57:48.148Z,99.90
2018-03-15T20:00:16.429Z,99.90
2018-03-15T20:02:44.002Z,99.90
2018-03-15T20:05:11.504Z,99.90
2018-03-15T20:07:39.050Z,99.90
2018-03-15T20:10:06.545Z,99.90
2018-03-15T20:12:34.046Z,99.90
2018-03-15T20:15:01.654Z,99.90
2018-03-15T20:17:29.169Z,99.90
2018-03-15T20:19:56.696Z,99.90
2018-03-15T20:22:29.854Z,99.90
2018-03-15T20:24:57.372Z,99.90
2018-03-15T20:27:30.660Z,99.90
2018-03-15T20:29:58.929Z,99.90
2018-03-15T20:32:32.190Z,99.90
2018-03-15T20:34:59.723Z,99.90
2018-03-15T20:37:28.000Z,99.90
2018-03-15T20:40:01.186Z,99.90
2018-03-15T20:42:28.688Z,99.90
2018-03-15T20:44:56.976Z,99.90
2018-03-15T20:47:30.996Z,99.90
2018-03-15T20:49:58.539Z,99.90
2018-03-15T20:52:26.042Z,99.90
2018-03-15T20:54:54.339Z,99.90
2018-03-15T20:57:21.834Z,99.90
2018-03-15T20:59:49.356Z,99.90
2018-03-15T21:02:16.877Z,99.90
2018-03-15T21:04:44.379Z,99.90
2018-03-15T21:07:11.904Z,99.90
2018-03-15T21:09:39.417Z,99.90
2018-03-15T21:12:06.944Z,99.90
2018-03-15T21:14:34.470Z,99.90
2018-03-15T21:17:01.986Z,99.90
2018-03-15T21:19:29.535Z,99.90
2018-03-15T21:21:57.029Z,99.90
2018-03-15T21:24:25.341Z,99.90
2018-03-15T21:26:52.856Z,99.90
2018-03-15T21:29:20.386Z,99.90
2018-03-15T21:31:47.880Z,99.90
2018-03-15T21:34:15.396Z,99.90
2018-03-15T21:36:42.893Z,99.90
2018-03-15T21:39:10.408Z,99.90
2018-03-15T21:41:37.926Z,99.90
2018-03-15T21:44:06.418Z,99.90
2018-03-15T21:46:34.017Z,99.90
2018-03-15T21:49:02.173Z,99.90
2018-03-15T21:51:29.704Z,99.90
2018-03-15T21:53:57.222Z,99.90
2018-03-15T21:56:24.717Z,99.90
2018-03-15T21:58:52.271Z,99.90
2018-03-15T22:01:19.769Z,99.90
2018-03-15T22:03:47.296Z,99.90
2018-03-15T22:06:15.564Z,99.90
2018-03-15T22:08:43.093Z,99.90
2018-03-15T22:11:10.603Z,99.90
2018-03-15T22:13:38.128Z,99.90
2018-03-15T22:16:05.628Z,99.90
2018-03-15T22:18:33.156Z,99.90
2018-03-15T22:21:00.655Z,99.90
2018-03-15T22:23:28.172Z,99.90
2018-03-15T22:25:56.443Z,99.90
2018-03-15T22:28:23.960Z,99.90
2018-03-15T22:30:51.458Z,99.90
2018-03-15T22:33:18.985Z,99.90
2018-03-15T22:35:47.244Z,99.90
2018-03-15T22:38:14.806Z,99.90
2018-03-15T22:40:42.317Z,99.90
2018-03-15T22:43:10.609Z,99.90
2018-03-15T22:45:38.857Z,99.90
2018-03-15T22:48:06.387Z,99.90
2018-03-15T22:50:33.885Z,99.90
2018-03-15T22:53:01.401Z,99.90
2018-03-15T22:55:29.660Z,99.90
2018-03-15T22:57:57.185Z,99.90
2018-03-15T23:00:24.672Z,99.90
2018-03-15T23:02:52.200Z,99.90
2018-03-15T23:05:20.462Z,99.90
2018-03-15T23:07:47.985Z,99.90
2018-03-15T23:10:15.480Z,99.90
2018-03-15T23:12:43.000Z,99.90
2018-03-15T23:15:10.500Z,99.90
2018-03-15T23:17:38.038Z,99.90
2018-03-15T23:20:05.533Z,99.90
2018-03-15T23:22:33.825Z,99.90
2018-03-15T23:25:02.090Z,99.90
2018-03-15T23:27:29.614Z,99.90
2018-03-15T23:29:57.114Z,99.90
2018-03-15T23:32:24.638Z,99.90
2018-03-15T23:34:52.129Z,99.90
2018-03-15T23:37:19.652Z,99.90
2018-03-15T23:39:47.933Z,99.90
2018-03-15T23:42:15.456Z,99.90
2018-03-15T23:44:42.956Z,99.90
2018-03-15T23:47:10.477Z,99.90
2018-03-15T23:49:37.978Z,99.90
2018-03-15T23:52:05.501Z,99.90
2018-03-15T23:54:32.996Z,99.90
2018-03-15T23:57:00.524Z,99.90
2018-03-15T23:59:28.021Z,99.90
